Time;durP1;ratioP1;P1;durP2;ratioP2;P2;SDS_P1;SDS_P2;PMS_P1;PMS_P2;Temp;Humidity;BMP_temperature;BMP_pressure;BME280_temperature;BME280_humidity;BME280_pressure;Samples;Min_cycle;Max_cycle;Signal;HPM_P1;HPM_P2
2022/02/13 00:01:02;;;;;;;12.70;6.80;;;2.20;99.90;;;;;;5039364;28;20442;-55
2022/02/13 00:03:28;;;;;;;15.33;8.03;;;2.20;99.90;;;;;;5039401;28;20446;-53
2022/02/13 00:05:55;;;;;;;11.63;6.50;;;2.20;99.90;;;;;;5039411;28;20473;-51
2022/02/13 00:08:22;;;;;;;8.50;6.73;;;2.30;99.90;;;;;;5039166;28;20468;-52
2022/02/13 00:10:48;;;;;;;10.20;6.30;;;2.30;99.90;;;;;;5039071;28;20507;-52
2022/02/13 00:13:23;;;;;;;13.43;7.93;;;2.30;99.90;;;;;;5039205;28;20469;-60
2022/02/13 00:15:51;;;;;;;10.13;6.40;;;2.30;99.90;;;;;;5038907;28;20477;-56
2022/02/13 00:18:18;;;;;;;10.90;6.70;;;2.30;99.90;;;;;;5039069;28;20465;-55
2022/02/13 00:20:45;;;;;;;8.33;6.00;;;2.20;99.90;;;;;;5038771;28;20473;-53
2022/02/13 00:23:13;;;;;;;6.13;5.33;;;2.30;99.90;;;;;;5039126;28;20480;-52
2022/02/13 00:25:40;;;;;;;11.47;5.60;;;2.30;99.90;;;;;;5038280;28;20460;-54
2022/02/13 00:28:11;;;;;;;9.33;5.93;;;2.30;99.90;;;;;;5039069;28;20784;-53
2022/02/13 00:30:39;;;;;;;10.63;7.13;;;2.30;99.90;;;;;;5039098;28;20460;-56
2022/02/13 00:33:05;;;;;;;10.10;5.40;;;2.20;99.90;;;;;;5039226;28;20417;-51
2022/02/13 00:35:32;;;;;;;8.60;4.77;;;2.20;99.90;;;;;;5039156;28;20462;-56
2022/02/13 00:37:59;;;;;;;17.87;7.30;;;2.20;99.90;;;;;;5039232;28;20433;-55
2022/02/13 00:40:28;;;;;;;7.97;4.73;;;2.20;99.90;;;;;;5039331;28;20446;-53
2022/02/13 00:42:54;;;;;;;14.60;7.43;;;2.20;99.90;;;;;;5039293;28;20450;-52
2022/02/13 00:45:21;;;;;;;10.13;6.50;;;2.20;99.90;;;;;;5038743;28;20472;-52
2022/02/13 00:47:50;;;;;;;7.83;5.43;;;2.20;99.90;;;;;;5037984;28;20446;-60
2022/02/13 00:50:17;;;;;;;14.57;7.27;;;2.30;99.90;;;;;;5038809;28;20501;-56
2022/02/13 00:52:43;;;;;;;11.83;5.40;;;2.30;99.90;;;;;;5038066;28;20433;-55
2022/02/13 00:55:11;;;;;;;9.50;5.90;;;2.30;99.90;;;;;;5038490;28;20457;-61
2022/02/13 00:57:38;;;;;;;7.10;5.13;;;2.20;99.90;;;;;;5038815;28;20453;-55
2022/02/13 01:00:06;;;;;;;13.50;7.03;;;2.20;99.90;;;;;;5038462;28;20468;-55
2022/02/13 01:02:33;;;;;;;10.53;6.23;;;2.30;99.90;;;;;;5038103;28;20433;-55
2022/02/13 01:05:01;;;;;;;9.63;5.07;;;2.30;99.90;;;;;;5037969;28;20469;-54
2022/02/13 01:07:28;;;;;;;10.60;6.23;;;2.20;99.90;;;;;;5037923;28;20438;-49
2022/02/13 01:09:57;;;;;;;7.90;5.27;;;2.30;99.90;;;;;;5038049;28;20482;-57
2022/02/13 01:12:24;;;;;;;11.63;6.57;;;2.30;99.90;;;;;;5037861;28;20464;-54
2022/02/13 01:15:02;;;;;;;9.57;6.00;;;2.30;99.90;;;;;;5037628;28;20466;-56
2022/02/13 01:17:29;;;;;;;7.90;4.67;;;2.30;99.90;;;;;;5037642;28;20461;-57
2022/02/13 01:19:58;;;;;;;9.20;5.87;;;2.30;99.90;;;;;;5037772;28;20493;-56
2022/02/13 01:22:26;;;;;;;9.90;5.10;;;2.30;99.90;;;;;;5037756;28;20524;-48
2022/02/13 01:24:53;;;;;;;6.90;5.10;;;2.30;99.90;;;;;;5037972;28;20460;-49
2022/02/13 01:27:20;;;;;;;16.33;7.37;;;2.30;99.90;;;;;;5038099;28;20419;-53
2022/02/13 01:29:46;;;;;;;6.73;5.70;;;2.30;99.90;;;;;;5037923;28;20469;-52
2022/02/13 01:32:15;;;;;;;9.13;5.07;;;2.30;99.90;;;;;;5038271;28;20437;-53
2022/02/13 01:34:42;;;;;;;10.60;6.00;;;2.20;99.90;;;;;;5037942;28;20461;-50
2022/02/13 01:37:08;;;;;;;11.93;5.63;;;2.20;99.90;;;;;;5038078;28;20445;-54
2022/02/13 01:39:37;;;;;;;9.23;4.70;;;2.20;99.90;;;;;;5037925;28;20473;-56
2022/02/13 01:42:04;;;;;;;9.23;5.97;;;2.10;99.90;;;;;;5038179;28;20465;-53
2022/02/13 01:44:32;;;;;;;10.50;6.20;;;2.10;99.90;;;;;;5038361;28;20453;-52
2022/02/13 01:46:59;;;;;;;8.63;5.83;;;2.00;99.90;;;;;;5038082;28;20473;-52
2022/02/13 01:49:26;;;;;;;5.53;3.80;;;2.10;99.90;;;;;;5037591;28;20488;-57
2022/02/13 01:51:55;;;;;;;9.90;5.40;;;2.00;99.90;;;;;;5037741;28;20504;-52
2022/02/13 01:54:22;;;;;;;9.27;5.20;;;2.00;99.90;;;;;;5037889;28;20430;-52
2022/02/13 01:56:53;;;;;;;7.53;5.13;;;2.00;99.90;;;;;;5037704;28;20464;-53
2022/02/13 01:59:20;;;;;;;7.90;4.77;;;2.00;99.90;;;;;;5037954;28;20485;-51
2022/02/13 02:01:46;;;;;;;10.13;4.60;;;2.00;99.90;;;;;;5037671;28;20544;-51
2022/02/13 02:04:14;;;;;;;10.33;5.17;;;2.00;99.90;;;;;;5037517;28;20445;-55
2022/02/13 02:06:40;;;;;;;9.77;5.70;;;2.00;99.90;;;;;;5037306;28;20469;-53
2022/02/13 02:09:08;;;;;;;10.40;5.90;;;2.00;99.90;;;;;;5037218;28;20481;-50
2022/02/13 02:11:34;;;;;;;13.10;5.70;;;2.00;99.90;;;;;;5037768;28;20469;-54
2022/02/13 02:14:02;;;;;;;8.00;5.00;;;2.00;99.90;;;;;;5037535;28;20457;-54
2022/02/13 02:16:29;;;;;;;7.43;6.23;;;2.00;99.90;;;;;;5037541;28;20492;-55
2022/02/13 02:18:56;;;;;;;12.00;6.23;;;2.00;99.90;;;;;;5036858;28;20441;-47
2022/02/13 02:21:23;;;;;;;12.27;6.20;;;2.00;99.90;;;;;;5037370;28;20465;-53
2022/02/13 02:23:51;;;;;;;8.60;5.73;;;2.00;99.90;;;;;;5037576;28;20438;-52
2022/02/13 02:26:21;;;;;;;10.33;5.70;;;2.00;99.90;;;;;;5037403;28;20470;-50
2022/02/13 02:28:47;;;;;;;10.30;5.90;;;2.00;99.90;;;;;;5037339;28;20416;-56
2022/02/13 02:31:16;;;;;;;10.90;6.07;;;2.00;99.90;;;;;;5036911;28;20512;-51
2022/02/13 02:33:42;;;;;;;11.70;5.97;;;2.00;99.90;;;;;;5037283;28;20440;-53
2022/02/13 02:36:16;;;;;;;10.40;6.83;;;1.90;99.90;;;;;;5036839;28;20465;-52
2022/02/13 02:38:43;;;;;;;9.93;5.80;;;1.90;99.90;;;;;;5037048;28;20460;-56
2022/02/13 02:41:12;;;;;;;7.57;4.43;;;1.90;99.90;;;;;;5022257;28;20532;-59
2022/02/13 02:43:39;;;;;;;7.90;4.07;;;1.80;99.90;;;;;;5015095;28;20445;-61
2022/02/13 02:46:06;;;;;;;14.73;6.10;;;1.90;99.90;;;;;;5015053;28;20469;-65
2022/02/13 02:48:33;;;;;;;8.50;6.10;;;1.80;99.90;;;;;;5015092;28;20532;-58
2022/02/13 02:51:00;;;;;;;6.67;4.67;;;1.80;99.90;;;;;;5014900;28;20493;-59
2022/02/13 02:53:27;;;;;;;9.00;5.60;;;1.80;99.90;;;;;;5014986;28;20418;-59
2022/02/13 02:55:54;;;;;;;9.17;5.43;;;1.80;99.90;;;;;;5015914;28;20469;-59
2022/02/13 02:58:23;;;;;;;8.10;5.63;;;1.80;99.90;;;;;;5014972;28;20512;-57
2022/02/13 03:00:50;;;;;;;7.83;5.30;;;1.80;99.90;;;;;;5014955;28;20469;-56
2022/02/13 03:03:17;;;;;;;8.90;5.63;;;1.90;99.90;;;;;;5015019;28;20430;-59
2022/02/13 03:05:44;;;;;;;11.70;5.77;;;1.80;99.90;;;;;;5014986;28;20465;-59
2022/02/13 03:08:11;;;;;;;10.73;5.27;;;1.80;99.90;;;;;;5014990;28;20434;-55
2022/02/13 03:10:38;;;;;;;9.77;5.03;;;1.80;99.90;;;;;;5014739;28;20543;-57
2022/02/13 03:13:05;;;;;;;7.30;5.60;;;1.80;99.90;;;;;;5014988;28;20450;-58
2022/02/13 03:15:34;;;;;;;10.30;5.40;;;1.80;99.90;;;;;;5015027;28;20450;-61
2022/02/13 03:18:01;;;;;;;7.40;4.93;;;1.80;99.90;;;;;;5014999;28;20459;-59
2022/02/13 03:20:27;;;;;;;8.47;6.10;;;1.80;99.90;;;;;;5014730;28;20500;-57
2022/02/13 03:22:54;;;;;;;7.50;5.33;;;1.90;99.90;;;;;;5014688;28;20512;-58
2022/02/13 03:25:21;;;;;;;8.17;5.60;;;1.90;99.90;;;;;;5014787;28;20544;-59
2022/02/13 03:27:48;;;;;;;7.20;5.47;;;1.90;99.90;;;;;;5014770;28;20883;-61
2022/02/13 03:30:14;;;;;;;6.77;4.00;;;1.90;99.90;;;;;;5016973;28;20539;-57
2022/02/13 03:32:42;;;;;;;11.20;5.83;;;1.80;99.90;;;;;;5018515;28;20473;-59
2022/02/13 03:35:10;;;;;;;10.33;5.43;;;1.80;99.90;;;;;;5018382;28;20484;-61
2022/02/13 03:37:37;;;;;;;11.13;6.30;;;1.80;99.90;;;;;;5019152;28;20454;-59
2022/02/13 03:40:05;;;;;;;6.40;4.67;;;1.80;99.90;;;;;;5018238;28;20493;-57
2022/02/13 03:42:32;;;;;;;8.33;5.40;;;1.80;99.90;;;;;;5018204;28;20445;-56
2022/02/13 03:44:58;;;;;;;11.00;6.63;;;1.80;99.90;;;;;;5018102;28;20449;-57
2022/02/13 03:47:26;;;;;;;9.27;4.77;;;1.80;99.90;;;;;;5017935;28;20831;-61
2022/02/13 03:49:54;;;;;;;9.93;5.73;;;1.80;99.90;;;;;;5018333;28;20492;-57
2022/02/13 03:52:21;;;;;;;6.10;4.53;;;1.80;99.90;;;;;;5017934;28;20469;-59
2022/02/13 03:54:48;;;;;;;14.43;7.00;;;1.90;99.90;;;;;;5017917;28;20461;-60
2022/02/13 03:57:15;;;;;;;18.93;6.93;;;1.90;99.90;;;;;;5018345;28;20473;-62
2022/02/13 03:59:42;;;;;;;9.20;4.73;;;1.80;99.90;;;;;;5018120;28;20438;-59
2022/02/13 04:02:09;;;;;;;9.83;6.07;;;1.90;99.90;;;;;;5017953;28;20465;-59
2022/02/13 04:04:35;;;;;;;5.97;4.70;;;1.90;99.90;;;;;;5017828;28;20465;-55
2022/02/13 04:07:04;;;;;;;5.90;4.40;;;1.80;99.90;;;;;;5017688;28;20477;-59
2022/02/13 04:09:31;;;;;;;8.40;5.30;;;1.80;99.90;;;;;;5017516;28;20464;-58
2022/02/13 04:11:58;;;;;;;4.97;4.07;;;1.80;99.90;;;;;;5017447;28;20572;-58
2022/02/13 04:14:24;;;;;;;13.03;5.97;;;1.80;99.90;;;;;;5017318;28;20512;-59
2022/02/13 04:16:51;;;;;;;12.07;5.97;;;1.70;99.90;;;;;;5017569;28;20487;-56
2022/02/13 04:19:18;;;;;;;9.10;5.40;;;1.70;99.90;;;;;;5018097;28;20449;-61
2022/02/13 04:21:44;;;;;;;11.83;6.60;;;1.70;99.90;;;;;;5017280;28;20535;-59
2022/02/13 04:24:12;;;;;;;9.90;6.40;;;1.70;99.90;;;;;;5017470;28;20453;-61
2022/02/13 04:26:40;;;;;;;8.20;4.73;;;1.70;99.90;;;;;;5017311;28;20477;-59
2022/02/13 04:29:07;;;;;;;10.03;6.00;;;1.70;99.90;;;;;;5017229;28;20523;-52
2022/02/13 04:31:34;;;;;;;10.00;5.50;;;1.60;99.90;;;;;;5016936;28;20940;-58
2022/02/13 04:34:00;;;;;;;13.73;4.93;;;1.60;99.90;;;;;;5017233;28;20512;-61
2022/02/13 04:36:27;;;;;;;11.77;5.80;;;1.60;99.90;;;;;;5016813;28;20895;-60
2022/02/13 04:38:54;;;;;;;8.70;5.30;;;1.70;99.90;;;;;;5017509;28;20895;-61
2022/02/13 04:41:22;;;;;;;8.87;5.80;;;1.70;99.90;;;;;;5016700;28;20507;-58
2022/02/13 04:43:49;;;;;;;8.43;4.73;;;1.70;99.90;;;;;;5017279;28;20430;-58
2022/02/13 04:46:16;;;;;;;11.67;5.30;;;1.60;99.90;;;;;;5016965;28;20480;-59
2022/02/13 04:48:42;;;;;;;10.03;6.10;;;1.60;99.90;;;;;;5016843;28;20461;-59
2022/02/13 04:51:09;;;;;;;11.37;6.93;;;1.60;99.90;;;;;;5016868;28;20512;-59
2022/02/13 04:53:36;;;;;;;8.50;5.60;;;1.60;99.90;;;;;;5017007;28;20441;-59
2022/02/13 04:56:04;;;;;;;9.27;5.10;;;1.60;99.90;;;;;;5016792;28;20461;-57
2022/02/13 04:58:32;;;;;;;13.00;7.70;;;1.60;99.90;;;;;;5016841;28;20461;-61
2022/02/13 05:00:59;;;;;;;11.33;5.47;;;1.60;99.90;;;;;;5017228;28;20442;-59
2022/02/13 05:03:26;;;;;;;10.20;6.30;;;1.60;99.90;;;;;;5016647;28;20469;-60
2022/02/13 05:05:53;;;;;;;5.30;3.83;;;1.60;99.90;;;;;;5016633;28;20458;-62
2022/02/13 05:08:20;;;;;;;7.33;5.73;;;1.60;99.90;;;;;;5016586;28;20547;-59
2022/02/13 05:10:46;;;;;;;11.40;5.10;;;1.60;99.90;;;;;;5016502;28;20563;-59
2022/02/13 05:13:13;;;;;;;12.67;6.77;;;1.60;99.90;;;;;;5016498;28;20481;-58
2022/02/13 05:15:41;;;;;;;6.93;5.00;;;1.60;99.90;;;;;;5016320;28;20446;-63
2022/02/13 05:18:08;;;;;;;8.33;6.03;;;1.60;99.90;;;;;;5016256;28;20474;-59
2022/02/13 05:20:35;;;;;;;11.20;6.03;;;1.60;99.90;;;;;;5017212;28;20453;-64
2022/02/13 05:23:02;;;;;;;7.80;5.20;;;1.60;99.90;;;;;;5016661;28;20473;-61
2022/02/13 05:25:29;;;;;;;11.23;5.47;;;1.50;99.90;;;;;;5016676;28;20462;-59
2022/02/13 05:27:55;;;;;;;11.87;6.80;;;1.50;99.90;;;;;;5016145;28;20473;-58
2022/02/13 05:30:22;;;;;;;7.70;6.40;;;1.50;99.90;;;;;;5016213;28;20481;-59
2022/02/13 05:32:50;;;;;;;9.60;5.40;;;1.50;99.90;;;;;;5015995;28;20457;-60
2022/02/13 05:35:17;;;;;;;11.23;5.73;;;1.50;99.90;;;;;;5016102;28;20453;-58
2022/02/13 05:37:43;;;;;;;12.13;5.43;;;1.50;99.90;;;;;;5016028;28;20500;-60
2022/02/13 05:40:11;;;;;;;10.67;6.43;;;1.40;99.90;;;;;;5016370;28;20438;-59
2022/02/13 05:42:38;;;;;;;9.70;5.77;;;1.40;99.90;;;;;;5017037;28;20532;-59
2022/02/13 05:45:06;;;;;;;7.10;4.43;;;1.40;99.90;;;;;;5015898;28;20562;-58
2022/02/13 05:47:33;;;;;;;9.53;4.97;;;1.50;99.90;;;;;;5015910;28;20538;-56
2022/02/13 05:50:01;;;;;;;11.87;5.80;;;1.50;99.90;;;;;;5015796;28;20445;-59
2022/02/13 05:52:30;;;;;;;9.77;5.07;;;1.50;99.90;;;;;;5015120;28;20547;-58
2022/02/13 05:54:57;;;;;;;12.57;6.47;;;1.50;99.90;;;;;;5015616;28;20528;-56
2022/02/13 05:57:23;;;;;;;7.20;4.90;;;1.50;99.90;;;;;;5015671;28;20536;-60
2022/02/13 05:59:50;;;;;;;7.50;5.30;;;1.50;99.90;;;;;;5015856;28;20546;-60
2022/02/13 06:02:17;;;;;;;10.40;4.77;;;1.50;99.90;;;;;;5016055;28;20461;-61
2022/02/13 06:04:44;;;;;;;9.73;4.93;;;1.50;99.90;;;;;;5015744;28;20449;-59
2022/02/13 06:07:12;;;;;;;10.17;5.73;;;1.50;99.90;;;;;;5015595;28;20456;-60
2022/02/13 06:09:38;;;;;;;8.50;6.00;;;1.50;99.90;;;;;;5015629;28;20434;-60
2022/02/13 06:12:06;;;;;;;10.03;5.43;;;1.50;99.90;;;;;;5015322;28;20497;-59
2022/02/13 06:14:33;;;;;;;6.70;4.33;;;1.40;99.90;;;;;;5015440;28;20446;-61
2022/02/13 06:16:59;;;;;;;12.10;7.00;;;1.40;99.90;;;;;;5015175;28;20453;-60
2022/02/13 06:19:26;;;;;;;10.17;5.50;;;1.40;99.90;;;;;;5015243;28;20464;-59
2022/02/13 06:21:53;;;;;;;5.90;4.73;;;1.40;99.90;;;;;;5016413;28;20465;-56
2022/02/13 06:24:23;;;;;;;9.03;5.60;;;1.40;99.90;;;;;;5015440;28;20453;-58
2022/02/13 06:26:49;;;;;;;9.73;5.33;;;1.30;99.90;;;;;;5015262;28;20552;-59
2022/02/13 06:29:17;;;;;;;7.90;5.90;;;1.30;99.90;;;;;;5015334;28;20515;-55
2022/02/13 06:31:44;;;;;;;6.00;4.50;;;1.30;99.90;;;;;;5016169;28;20491;-62
2022/02/13 06:34:12;;;;;;;8.00;5.73;;;1.30;99.90;;;;;;5015970;28;20450;-56
2022/02/13 06:36:40;;;;;;;9.70;6.23;;;1.30;99.90;;;;;;5015217;28;20477;-53
2022/02/13 06:39:09;;;;;;;10.67;4.17;;;1.30;99.90;;;;;;5015047;28;20786;-55
2022/02/13 06:41:37;;;;;;;5.70;4.33;;;1.40;99.90;;;;;;5015008;28;20453;-53
2022/02/13 06:44:04;;;;;;;9.37;5.13;;;1.40;99.90;;;;;;5016351;28;20503;-55
2022/02/13 06:46:31;;;;;;;12.83;4.87;;;1.40;99.90;;;;;;5014984;28;20767;-58
2022/02/13 06:49:01;;;;;;;7.87;6.10;;;1.40;99.90;;;;;;5015178;28;20469;-57
2022/02/13 06:51:27;;;;;;;9.50;6.80;;;1.50;99.90;;;;;;5014914;28;20489;-56
2022/02/13 06:53:54;;;;;;;10.23;5.30;;;1.40;99.90;;;;;;5015161;28;20469;-61
2022/02/13 06:56:21;;;;;;;6.47;4.70;;;1.40;99.90;;;;;;5016692;28;20445;-55
2022/02/13 06:58:48;;;;;;;11.40;5.57;;;1.50;99.90;;;;;;5014705;28;20997;-57
2022/02/13 07:01:15;;;;;;;6.63;4.47;;;1.50;99.90;;;;;;5015133;28;20592;-57
2022/02/13 07:03:42;;;;;;;8.53;5.73;;;1.50;99.90;;;;;;5014893;28;20492;-56
2022/02/13 07:06:08;;;;;;;12.80;5.03;;;1.60;99.90;;;;;;5018805;28;20805;-57
2022/02/13 07:08:35;;;;;;;17.63;5.13;;;1.60;99.90;;;;;;5018683;28;20539;-60
2022/02/13 07:11:02;;;;;;;11.47;5.50;;;1.60;99.90;;;;;;5020382;28;20551;-57
2022/02/13 07:13:29;;;;;;;8.73;4.40;;;1.70;99.90;;;;;;5018689;28;20469;-53
2022/02/13 07:15:57;;;;;;;10.87;5.23;;;1.70;99.90;;;;;;5018746;28;20461;-55
2022/02/13 07:18:24;;;;;;;7.07;4.23;;;1.80;99.90;;;;;;5018625;28;20934;-56
2022/02/13 07:20:52;;;;;;;8.10;4.97;;;1.80;99.90;;;;;;5019112;28;20453;-56
2022/02/13 07:23:18;;;;;;;11.00;5.80;;;1.90;99.90;;;;;;5018972;28;20473;-55
2022/02/13 07:25:45;;;;;;;8.10;5.47;;;1.90;99.90;;;;;;5018456;28;20445;-59
2022/02/13 07:30:57;;;;;;;5.77;4.87;;;2.00;99.90;;;;;;5018654;28;20556;-56
2022/02/13 07:33:24;;;;;;;8.03;4.80;;;2.00;99.90;;;;;;5019296;28;20551;-54
2022/02/13 07:35:51;;;;;;;7.07;5.00;;;2.00;99.90;;;;;;5018238;28;20906;-52
2022/02/13 07:38:17;;;;;;;8.93;4.40;;;2.10;99.90;;;;;;5018033;28;20527;-57
2022/02/13 07:40:44;;;;;;;7.53;4.97;;;2.10;99.90;;;;;;5019253;28;20938;-62
2022/02/13 07:43:11;;;;;;;8.90;5.40;;;2.00;99.90;;;;;;5018370;28;20469;-55
2022/02/13 07:45:38;;;;;;;7.83;5.03;;;2.00;99.90;;;;;;5018194;28;20437;-57
2022/02/13 07:48:06;;;;;;;8.90;4.50;;;2.00;99.90;;;;;;5018010;28;20453;-58
2022/02/13 07:50:33;;;;;;;7.30;4.53;;;2.00;99.90;;;;;;5018073;28;20490;-57
2022/02/13 07:53:00;;;;;;;9.60;5.50;;;2.00;99.90;;;;;;5019120;28;20453;-57
2022/02/13 07:55:27;;;;;;;10.80;5.13;;;2.00;99.90;;;;;;5018165;28;20515;-56
2022/02/13 07:57:54;;;;;;;5.83;3.57;;;2.00;99.90;;;;;;5018086;28;20461;-57
2022/02/13 08:00:21;;;;;;;8.03;5.13;;;2.10;99.90;;;;;;5017995;28;20503;-57
2022/02/13 08:02:47;;;;;;;8.43;5.27;;;2.20;99.90;;;;;;5018494;28;20441;-59
2022/02/13 08:05:15;;;;;;;9.03;4.03;;;2.30;99.90;;;;;;5018534;28;20445;-57
2022/02/13 08:07:46;;;;;;;10.00;5.20;;;2.30;99.90;;;;;;5017871;28;20445;-55
2022/02/13 08:10:13;;;;;;;6.20;3.80;;;2.40;99.90;;;;;;5017689;28;20457;-58
2022/02/13 08:12:39;;;;;;;7.73;3.70;;;2.40;99.90;;;;;;5017680;28;20555;-56
2022/02/13 08:15:06;;;;;;;7.90;5.03;;;2.40;99.90;;;;;;5018382;28;20469;-65
2022/02/13 08:17:33;;;;;;;9.73;5.63;;;2.40;99.90;;;;;;5017180;28;20572;-55
2022/02/13 08:20:03;;;;;;;10.33;4.33;;;2.40;99.90;;;;;;5017342;28;20849;-56
2022/02/13 08:22:31;;;;;;;9.33;4.07;;;2.50;99.90;;;;;;5017530;28;20442;-53
2022/02/13 08:24:57;;;;;;;9.80;5.23;;;2.60;99.90;;;;;;5017349;28;20844;-58
2022/02/13 08:27:24;;;;;;;11.47;5.40;;;2.70;99.90;;;;;;5018588;28;20456;-54
2022/02/13 08:29:51;;;;;;;7.83;3.80;;;2.70;99.90;;;;;;5017108;28;20450;-57
2022/02/13 08:32:18;;;;;;;9.67;5.00;;;2.80;99.90;;;;;;5017072;28;20965;-54
2022/02/13 08:34:45;;;;;;;5.23;3.60;;;2.80;99.90;;;;;;5017249;28;20477;-56
2022/02/13 08:37:12;;;;;;;7.50;3.73;;;2.90;99.90;;;;;;5017990;28;20456;-62
2022/02/13 08:39:40;;;;;;;6.20;3.97;;;2.90;99.90;;;;;;5017268;28;20496;-57
2022/02/13 08:42:07;;;;;;;6.47;4.10;;;3.00;99.90;;;;;;5017094;28;20511;-53
2022/02/13 08:44:35;;;;;;;11.03;4.67;;;3.10;99.90;;;;;;5016759;28;20507;-62
2022/02/13 08:47:01;;;;;;;5.90;3.87;;;3.20;99.90;;;;;;5016841;28;20453;-54
2022/02/13 08:49:28;;;;;;;4.50;3.53;;;3.20;99.90;;;;;;5017851;28;20484;-59
2022/02/13 08:51:55;;;;;;;5.00;3.77;;;3.40;99.90;;;;;;5016961;28;20489;-58
2022/02/13 08:54:21;;;;;;;5.20;2.93;;;3.40;99.90;;;;;;5016855;28;20474;-55
2022/02/13 08:56:49;;;;;;;9.30;3.57;;;3.50;99.90;;;;;;5016852;28;20480;-58
2022/02/13 08:59:16;;;;;;;6.87;4.23;;;3.60;99.90;;;;;;5016959;28;20543;-61
2022/02/13 09:01:44;;;;;;;8.97;3.80;;;3.70;99.90;;;;;;5017507;28;20907;-57
2022/02/13 09:04:11;;;;;;;9.50;4.20;;;3.80;99.90;;;;;;5016628;28;20479;-57
2022/02/13 09:06:38;;;;;;;9.80;4.07;;;3.80;99.90;;;;;;5016563;28;20519;-51
2022/02/13 09:09:06;;;;;;;7.73;4.67;;;3.90;99.90;;;;;;5016547;28;20473;-57
2022/02/13 09:11:33;;;;;;;5.33;3.37;;;4.00;99.90;;;;;;5017068;28;21011;-58
2022/02/13 09:14:03;;;;;;;5.13;3.37;;;4.10;99.90;;;;;;5016572;28;20469;-55
2022/02/13 09:16:31;;;;;;;6.87;3.33;;;4.10;99.90;;;;;;5016511;28;20449;-56
2022/02/13 09:18:57;;;;;;;8.23;4.60;;;4.20;99.90;;;;;;5016401;28;20450;-56
2022/02/13 09:21:24;;;;;;;5.10;2.90;;;4.30;99.90;;;;;;5016473;28;20839;-52
2022/02/13 09:23:51;;;;;;;7.10;3.80;;;4.40;99.90;;;;;;5016947;28;20936;-57
2022/02/13 09:26:18;;;;;;;6.60;3.83;;;4.50;99.90;;;;;;5016349;28;20759;-58
2022/02/13 09:28:45;;;;;;;7.40;4.03;;;4.60;99.90;;;;;;5016024;28;20461;-58
2022/02/13 09:31:13;;;;;;;5.57;3.70;;;4.70;99.90;;;;;;5016144;28;20468;-57
2022/02/13 09:33:39;;;;;;;5.43;3.87;;;4.70;99.90;;;;;;5016306;28;20449;-57
2022/02/13 09:36:07;;;;;;;6.30;3.43;;;4.80;99.90;;;;;;5016067;28;20460;-56
2022/02/13 09:38:33;;;;;;;5.87;3.83;;;4.80;99.90;;;;;;5016785;28;20462;-60
2022/02/13 09:41:01;;;;;;;4.73;3.57;;;5.00;99.90;;;;;;5016226;28;20504;-55
2022/02/13 09:43:27;;;;;;;9.00;4.70;;;5.10;99.90;;;;;;5015708;28;20437;-58
2022/02/13 09:45:56;;;;;;;5.93;3.70;;;5.30;99.90;;;;;;5015665;28;20469;-60
2022/02/13 09:48:26;;;;;;;3.90;3.20;;;5.50;99.90;;;;;;5015885;28;20450;-56
2022/02/13 09:50:54;;;;;;;8.20;4.20;;;5.80;99.90;;;;;;5016329;28;20573;-58
2022/02/13 09:53:22;;;;;;;5.90;3.80;;;6.00;99.90;;;;;;5015792;28;20920;-58
2022/02/13 09:55:49;;;;;;;5.37;4.07;;;6.30;99.90;;;;;;5015709;28;20489;-59
2022/02/13 09:58:16;;;;;;;6.60;3.80;;;7.30;99.90;;;;;;5015526;28;20463;-61
2022/02/13 10:00:54;;;;;;;9.50;5.03;;;8.80;99.90;;;;;;5016214;28;20538;-61
2022/02/13 10:03:21;;;;;;;11.03;4.97;;;10.20;99.90;;;;;;5016104;28;20457;-56
2022/02/13 10:05:50;;;;;;;4.60;3.70;;;11.50;99.30;;;;;;5015626;28;20473;-57
2022/02/13 10:08:36;;;;;;;8.67;4.50;;;12.60;92.50;;;;;;5015664;28;20458;-55
2022/02/13 10:11:12;;;;;;;5.93;3.87;;;13.40;85.20;;;;;;5015305;28;20962;-53
2022/02/13 10:13:43;;;;;;;6.33;4.67;;;14.00;78.20;;;;;;5016014;28;20496;-57
2022/02/13 10:16:18;;;;;;;6.00;4.30;;;14.70;71.10;;;;;;5015356;28;20472;-56
2022/02/13 10:18:50;;;;;;;7.70;4.17;;;14.80;67.30;;;;;;5015469;28;20711;-57
2022/02/13 10:21:39;;;;;;;6.00;4.53;;;14.70;65.90;;;;;;5015277;28;20457;-56
2022/02/13 10:24:19;;;;;;;8.77;4.33;;;15.00;63.20;;;;;;5015917;28;20433;-62
2022/02/13 10:26:48;;;;;;;5.53;3.90;;;15.20;62.10;;;;;;5015402;28;20464;-56
2022/02/13 10:29:15;;;;;;;6.53;4.07;;;15.30;59.80;;;;;;5015374;28;20545;-57
2022/02/13 10:31:43;;;;;;;7.27;4.37;;;15.40;58.00;;;;;;5015109;28;20501;-58
2022/02/13 10:34:14;;;;;;;8.00;3.83;;;15.40;57.90;;;;;;5015082;28;20446;-56
2022/02/13 10:36:43;;;;;;;5.13;3.77;;;15.60;56.90;;;;;;5015575;28;20434;-57
2022/02/13 10:39:20;;;;;;;5.57;3.10;;;15.50;55.90;;;;;;5014636;28;20453;-56
2022/02/13 10:41:48;;;;;;;5.43;4.00;;;15.30;56.10;;;;;;5015222;28;20437;-60
2022/02/13 10:44:16;;;;;;;7.50;4.03;;;15.20;56.30;;;;;;5014998;28;20527;-59
2022/02/13 10:46:44;;;;;;;4.60;3.50;;;15.00;56.10;;;;;;5015504;28;20536;-60
2022/02/13 10:49:12;;;;;;;6.40;4.37;;;15.00;55.50;;;;;;5015313;28;20448;-58
2022/02/13 10:51:39;;;;;;;9.17;4.50;;;14.70;56.30;;;;;;5014775;28;20457;-57
2022/02/13 10:54:07;;;;;;;5.90;3.70;;;14.80;56.60;;;;;;5015003;28;20510;-56
2022/02/13 10:56:35;;;;;;;5.47;3.20;;;14.90;56.90;;;;;;5014847;28;20755;-59
2022/02/13 10:59:02;;;;;;;6.00;3.70;;;15.00;56.30;;;;;;5015284;28;20459;-59
2022/02/13 11:01:29;;;;;;;4.27;3.83;;;14.90;57.20;;;;;;5015299;28;20454;-60
2022/02/13 11:04:03;;;;;;;4.53;3.87;;;15.00;56.20;;;;;;5014981;28;20897;-58
2022/02/13 11:06:31;;;;;;;7.97;4.50;;;15.10;56.00;;;;;;5014630;28;20461;-63
2022/02/13 11:09:02;;;;;;;4.67;3.70;;;15.00;55.50;;;;;;5015034;28;20761;-54
2022/02/13 11:11:32;;;;;;;5.20;3.50;;;14.80;55.50;;;;;;5015220;28;20854;-58
2022/02/13 11:13:59;;;;;;;6.57;3.47;;;14.60;56.40;;;;;;5015101;28;20506;-58
2022/02/13 11:16:31;;;;;;;5.40;3.23;;;14.60;57.00;;;;;;5014706;28;20464;-56
2022/02/13 11:19:01;;;;;;;5.43;4.10;;;14.40;56.40;;;;;;5014735;28;20450;-57
2022/02/13 11:21:30;;;;;;;10.50;3.80;;;14.10;56.50;;;;;;5015500;28;20467;-57
2022/02/13 11:23:57;;;;;;;7.03;4.23;;;13.60;57.10;;;;;;5015659;28;20502;-59
2022/02/13 11:26:45;;;;;;;8.33;4.60;;;13.30;58.50;;;;;;5015046;28;20478;-57
2022/02/13 11:29:13;;;;;;;5.00;2.93;;;12.80;58.90;;;;;;5014909;28;20465;-62
2022/02/13 11:31:45;;;;;;;4.77;3.03;;;12.50;59.60;;;;;;5014302;28;20980;-58
2022/02/13 11:34:16;;;;;;;7.50;3.90;;;12.30;60.30;;;;;;5014587;28;20882;-61
2022/02/13 11:36:48;;;;;;;7.80;4.03;;;11.80;61.90;;;;;;5014401;28;20949;-57
2022/02/13 11:39:39;;;;;;;6.57;4.23;;;11.20;63.10;;;;;;5015599;28;20491;-56
2022/02/13 11:42:10;;;;;;;10.80;3.50;;;10.70;64.60;;;;;;5004724;28;20461;-58
2022/02/13 11:44:49;;;;;;;4.67;3.40;;;10.50;65.70;;;;;;5014778;28;20434;-56
2022/02/13 11:47:17;;;;;;;8.23;3.17;;;10.10;66.40;;;;;;5014461;28;20910;-57
2022/02/13 11:50:21;;;;;;;7.00;3.50;;;9.90;69.60;;;;;;5014890;28;20452;-58
2022/02/13 11:53:07;;;;;;;3.17;2.80;;;9.50;70.80;;;;;;5017836;28;20548;-56
2022/02/13 11:55:36;;;;;;;6.00;3.60;;;9.10;73.00;;;;;;5017700;28;20484;-56
2022/02/13 11:58:13;;;;;;;5.00;3.00;;;8.90;75.10;;;;;;5017997;28;20452;-56
2022/02/13 12:00:47;;;;;;;4.30;3.43;;;8.90;76.60;;;;;;5018125;28;20480;-60
2022/02/13 12:03:19;;;;;;;3.73;2.87;;;8.90;77.40;;;;;;5018475;28;20425;-56
2022/02/13 12:05:52;;;;;;;7.63;3.70;;;8.80;76.70;;;;;;5017776;28;20476;-53
2022/02/13 12:08:23;;;;;;;5.97;3.77;;;8.80;78.50;;;;;;5017861;28;20870;-53
2022/02/13 12:10:50;;;;;;;4.20;2.70;;;8.80;80.20;;;;;;5017533;28;20480;-54
2022/02/13 12:13:20;;;;;;;4.77;2.73;;;8.70;80.40;;;;;;5018511;28;20861;-58
2022/02/13 12:15:52;;;;;;;10.00;3.30;;;8.60;82.10;;;;;;5017867;28;20815;-57
2022/02/13 12:18:19;;;;;;;6.03;4.03;;;8.60;81.90;;;;;;5017554;28;20503;-58
2022/02/13 12:20:47;;;;;;;6.40;3.00;;;8.50;82.80;;;;;;5017260;28;20546;-55
2022/02/13 12:23:15;;;;;;;7.77;3.90;;;8.40;84.00;;;;;;5017328;28;20961;-58
2022/02/13 12:25:45;;;;;;;6.30;2.60;;;8.40;85.10;;;;;;5018075;28;20469;-58
2022/02/13 12:28:15;;;;;;;4.53;3.30;;;8.50;84.60;;;;;;5017076;28;20458;-57
2022/02/13 12:30:49;;;;;;;7.73;4.37;;;8.60;88.70;;;;;;5017075;28;20480;-57
2022/02/13 12:33:22;;;;;;;6.13;3.50;;;8.70;87.50;;;;;;5017405;28;20468;-55
2022/02/13 12:35:50;;;;;;;4.67;3.53;;;8.70;87.60;;;;;;5017412;28;20996;-62
2022/02/13 12:38:17;;;;;;;6.67;3.60;;;8.80;86.20;;;;;;5017633;28;20437;-60
2022/02/13 12:40:44;;;;;;;7.40;3.80;;;8.90;84.80;;;;;;5017233;28;20484;-57
2022/02/13 12:43:15;;;;;;;6.40;3.70;;;8.80;85.00;;;;;;5017029;28;20438;-56
2022/02/13 12:45:42;;;;;;;6.23;3.60;;;8.70;84.90;;;;;;5017115;28;20524;-61
2022/02/13 12:48:12;;;;;;;7.07;4.50;;;8.70;85.50;;;;;;5018193;28;20434;-57
2022/02/13 12:50:41;;;;;;;8.60;4.50;;;8.70;86.10;;;;;;5016826;28;20918;-55
2022/02/13 12:53:09;;;;;;;5.70;4.27;;;8.70;86.10;;;;;;5017204;28;20469;-53
2022/02/13 12:55:38;;;;;;;10.00;3.83;;;8.70;87.20;;;;;;5016841;28;20483;-51
2022/02/13 12:58:06;;;;;;;5.70;4.10;;;8.80;87.60;;;;;;5017270;28;20441;-58
2022/02/13 13:00:34;;;;;;;5.03;3.40;;;8.80;86.40;;;;;;5017136;28;20451;-57